sensor_id;sensor_type;location;lat;lon;timestamp;pressure;altitude;pressure_sealevel;temperature;humidity
45285;BME280;31026;43.780;25.948;2022-12-19T00:01:14;103136.75;;;14.28;68.48
45285;BME280;31026;43.780;25.948;2022-12-19T00:03:47;103157.09;;;14.29;68.65
45285;BME280;31026;43.780;25.948;2022-12-19T00:06:16;103158.03;;;14.28;68.40
45285;BME280;31026;43.780;25.948;2022-12-19T00:08:46;103163.28;;;14.30;68.44
45285;BME280;31026;43.780;25.948;2022-12-19T00:11:14;103158.94;;;14.27;68.64
45285;BME280;31026;43.780;25.948;2022-12-19T00:13:43;103171.34;;;14.28;68.73
45285;BME280;31026;43.780;25.948;2022-12-19T00:16:12;103172.25;;;14.27;68.41
45285;BME280;31026;43.780;25.948;2022-12-19T00:18:42;103167.84;;;14.26;68.55
45285;BME280;31026;43.780;25.948;2022-12-19T00:21:14;103183.72;;;14.29;68.47
45285;BME280;31026;43.780;25.948;2022-12-19T00:23:42;103171.38;;;14.27;68.42
45285;BME280;31026;43.780;25.948;2022-12-19T00:26:11;103180.19;;;14.29;68.31
45285;BME280;31026;43.780;25.948;2022-12-19T00:28:40;103167.84;;;14.26;68.35
45285;BME280;31026;43.780;25.948;2022-12-19T00:31:08;103168.81;;;14.24;68.49
45285;BME280;31026;43.780;25.948;2022-12-19T00:33:38;103178.47;;;14.26;68.46
45285;BME280;31026;43.780;25.948;2022-12-19T00:36:09;103174.84;;;14.30;68.49
45285;BME280;31026;43.780;25.948;2022-12-19T00:38:40;103188.22;;;14.27;68.64
45285;BME280;31026;43.780;25.948;2022-12-19T00:41:11;103185.63;;;14.24;68.42
45285;BME280;31026;43.780;25.948;2022-12-19T00:43:39;103186.38;;;14.29;68.73
45285;BME280;31026;43.780;25.948;2022-12-19T00:46:09;103178.59;;;14.23;68.29
45285;BME280;31026;43.780;25.948;2022-12-19T00:48:38;103175.09;;;14.21;68.40
45285;BME280;31026;43.780;25.948;2022-12-19T00:51:08;103175.09;;;14.21;68.46
45285;BME280;31026;43.780;25.948;2022-12-19T00:53:40;103164.34;;;14.24;68.56
45285;BME280;31026;43.780;25.948;2022-12-19T00:56:09;103166.19;;;14.22;68.59
45285;BME280;31026;43.780;25.948;2022-12-19T00:58:38;103169.75;;;14.23;68.57
45285;BME280;31026;43.780;25.948;2022-12-19T01:01:08;103167.94;;;14.23;68.19
45285;BME280;31026;43.780;25.948;2022-12-19T01:03:37;103175.78;;;14.28;68.47
45285;BME280;31026;43.780;25.948;2022-12-19T01:06:05;103158.19;;;14.22;68.29
45285;BME280;31026;43.780;25.948;2022-12-19T01:08:34;103174.13;;;14.24;68.28
45285;BME280;31026;43.780;25.948;2022-12-19T01:11:05;103173.16;;;14.26;68.17
45285;BME280;31026;43.780;25.948;2022-12-19T01:13:34;103168.03;;;14.20;68.39
45285;BME280;31026;43.780;25.948;2022-12-19T01:16:01;103183.97;;;14.20;68.36
45285;BME280;31026;43.780;25.948;2022-12-19T01:18:30;103180.41;;;14.21;68.38
45285;BME280;31026;43.780;25.948;2022-12-19T01:20:58;103183.09;;;14.21;68.14
45285;BME280;31026;43.780;25.948;2022-12-19T01:23:27;103184.75;;;14.25;68.30
45285;BME280;31026;43.780;25.948;2022-12-19T01:25:56;103184.88;;;14.21;68.31
45285;BME280;31026;43.780;25.948;2022-12-19T01:28:26;103202.56;;;14.22;68.32
45285;BME280;31026;43.780;25.948;2022-12-19T01:30:55;103189.31;;;14.20;67.90
45285;BME280;31026;43.780;25.948;2022-12-19T01:33:23;103199.06;;;14.21;68.14
45285;BME280;31026;43.780;25.948;2022-12-19T01:35:52;103204.22;;;14.26;68.36
45285;BME280;31026;43.780;25.948;2022-12-19T01:38:20;103209.69;;;14.21;68.36
45285;BME280;31026;43.780;25.948;2022-12-19T01:40:49;103222.91;;;14.24;67.90
45285;BME280;31026;43.780;25.948;2022-12-19T01:43:18;103198.13;;;14.22;68.29
45285;BME280;31026;43.780;25.948;2022-12-19T01:45:49;103195.56;;;14.19;68.22
45285;BME280;31026;43.780;25.948;2022-12-19T01:48:21;103215.06;;;14.20;68.03
45285;BME280;31026;43.780;25.948;2022-12-19T01:50:52;103213.38;;;14.17;68.11
45285;BME280;31026;43.780;25.948;2022-12-19T01:53:21;103223.19;;;14.15;68.25
45285;BME280;31026;43.780;25.948;2022-12-19T01:55:52;103225.75;;;14.18;68.26
45285;BME280;31026;43.780;25.948;2022-12-19T01:58:21;103221.41;;;14.14;68.41
45285;BME280;31026;43.780;25.948;2022-12-19T02:00:52;103225.00;;;14.13;68.30
45285;BME280;31026;43.780;25.948;2022-12-19T02:03:22;103209.91;;;14.13;68.45
45285;BME280;31026;43.780;25.948;2022-12-19T02:05:52;103196.47;;;14.18;68.50
45285;BME280;31026;43.780;25.948;2022-12-19T02:08:20;103226.75;;;14.14;68.35
45285;BME280;31026;43.780;25.948;2022-12-19T02:10:50;103226.69;;;14.16;68.17
45285;BME280;31026;43.780;25.948;2022-12-19T02:13:18;103230.34;;;14.13;68.38
45285;BME280;31026;43.780;25.948;2022-12-19T02:15:48;103230.22;;;14.16;68.40
45285;BME280;31026;43.780;25.948;2022-12-19T02:18:24;103231.22;;;14.12;68.39
45285;BME280;31026;43.780;25.948;2022-12-19T02:21:07;103233.84;;;14.13;68.48
45285;BME280;31026;43.780;25.948;2022-12-19T02:26:31;103256.00;;;14.14;68.04
45285;BME280;31026;43.780;25.948;2022-12-19T02:29:08;103240.88;;;14.16;68.18
45285;BME280;31026;43.780;25.948;2022-12-19T02:31:45;103251.44;;;14.19;67.99
45285;BME280;31026;43.780;25.948;2022-12-19T02:34:15;103246.19;;;14.16;67.94
45285;BME280;31026;43.780;25.948;2022-12-19T02:36:47;103255.00;;;14.18;67.95
45285;BME280;31026;43.780;25.948;2022-12-19T02:39:19;103254.06;;;14.21;67.79
45285;BME280;31026;43.780;25.948;2022-12-19T02:41:51;103252.41;;;14.17;67.86
45285;BME280;31026;43.780;25.948;2022-12-19T02:44:24;103240.94;;;14.15;68.09
45285;BME280;31026;43.780;25.948;2022-12-19T02:46:56;103232.06;;;14.14;67.99
45285;BME280;31026;43.780;25.948;2022-12-19T02:49:26;103247.19;;;14.12;68.28
45285;BME280;31026;43.780;25.948;2022-12-19T02:51:55;103244.53;;;14.12;68.39
45285;BME280;31026;43.780;25.948;2022-12-19T02:54:23;103253.34;;;14.14;68.12
45285;BME280;31026;43.780;25.948;2022-12-19T02:56:53;103234.78;;;14.12;68.07
45285;BME280;31026;43.780;25.948;2022-12-19T02:59:28;103257.88;;;14.10;68.04
45285;BME280;31026;43.780;25.948;2022-12-19T03:02:05;103256.09;;;14.12;68.33
45285;BME280;31026;43.780;25.948;2022-12-19T03:04:40;103249.03;;;14.10;68.29
45285;BME280;31026;43.780;25.948;2022-12-19T03:07:17;103249.13;;;14.07;68.21
45285;BME280;31026;43.780;25.948;2022-12-19T03:09:49;103255.22;;;14.10;68.29
45285;BME280;31026;43.780;25.948;2022-12-19T03:12:20;103251.69;;;14.10;68.02
45285;BME280;31026;43.780;25.948;2022-12-19T03:14:51;103254.34;;;14.10;67.89
45285;BME280;31026;43.780;25.948;2022-12-19T03:17:23;103248.25;;;14.06;68.34
45285;BME280;31026;43.780;25.948;2022-12-19T03:22:23;103258.84;;;14.08;67.96
45285;BME280;31026;43.780;25.948;2022-12-19T03:24:51;103285.38;;;14.11;67.89
45285;BME280;31026;43.780;25.948;2022-12-19T03:27:21;103283.66;;;14.08;68.04
45285;BME280;31026;43.780;25.948;2022-12-19T03:29:54;103285.44;;;14.08;68.01
45285;BME280;31026;43.780;25.948;2022-12-19T03:32:26;103270.34;;;14.08;68.26
45285;BME280;31026;43.780;25.948;2022-12-19T03:34:58;103272.13;;;14.09;68.19
45285;BME280;31026;43.780;25.948;2022-12-19T03:37:30;103258.84;;;14.08;68.16
45285;BME280;31026;43.780;25.948;2022-12-19T03:39:59;103280.09;;;14.09;67.86
45285;BME280;31026;43.780;25.948;2022-12-19T03:42:28;103272.13;;;14.09;67.96
45285;BME280;31026;43.780;25.948;2022-12-19T03:45:12;103266.81;;;14.08;67.67
45285;BME280;31026;43.780;25.948;2022-12-19T03:47:45;103274.81;;;14.08;67.93
45285;BME280;31026;43.780;25.948;2022-12-19T03:50:15;103268.63;;;14.07;67.84
45285;BME280;31026;43.780;25.948;2022-12-19T03:52:46;103278.41;;;14.07;67.85
45285;BME280;31026;43.780;25.948;2022-12-19T03:55:20;103269.50;;;14.08;68.09
45285;BME280;31026;43.780;25.948;2022-12-19T03:57:52;103271.34;;;14.04;67.97
45285;BME280;31026;43.780;25.948;2022-12-19T04:00:23;103268.69;;;14.04;67.95
45285;BME280;31026;43.780;25.948;2022-12-19T04:02:55;103280.22;;;14.05;68.13
45285;BME280;31026;43.780;25.948;2022-12-19T04:05:26;103289.22;;;14.01;68.02
45285;BME280;31026;43.780;25.948;2022-12-19T04:07:55;103305.94;;;14.04;68.16
45285;BME280;31026;43.780;25.948;2022-12-19T04:10:24;103307.75;;;14.04;67.87
45285;BME280;31026;43.780;25.948;2022-12-19T04:12:55;103309.50;;;14.05;68.03
45285;BME280;31026;43.780;25.948;2022-12-19T04:15:28;103308.53;;;14.07;68.09
45285;BME280;31026;43.780;25.948;2022-12-19T04:18:01;103314.84;;;14.03;68.12
45285;BME280;31026;43.780;25.948;2022-12-19T04:20:32;103321.13;;;14.01;67.92
45285;BME280;31026;43.780;25.948;2022-12-19T04:23:03;103317.53;;;14.02;67.97
45285;BME280;31026;43.780;25.948;2022-12-19T04:25:41;103328.19;;;14.02;67.74
45285;BME280;31026;43.780;25.948;2022-12-19T04:28:11;103329.13;;;14.01;67.68
45285;BME280;31026;43.780;25.948;2022-12-19T04:30:42;103322.88;;;14.02;67.72
45285;BME280;31026;43.780;25.948;2022-12-19T04:33:15;103337.03;;;14.02;67.94
45285;BME280;31026;43.780;25.948;2022-12-19T04:35:44;103337.09;;;14.01;67.91
45285;BME280;31026;43.780;25.948;2022-12-19T04:38:12;103329.13;;;14.01;67.79
45285;BME280;31026;43.780;25.948;2022-12-19T04:40:40;103338.84;;;14.02;67.91
45285;BME280;31026;43.780;25.948;2022-12-19T04:43:10;103340.53;;;14.04;67.68
45285;BME280;31026;43.780;25.948;2022-12-19T04:45:39;103340.66;;;14.00;68.01
45285;BME280;31026;43.780;25.948;2022-12-19T04:48:08;103349.56;;;13.99;67.64
45285;BME280;31026;43.780;25.948;2022-12-19T04:50:40;103358.28;;;14.04;67.74
45285;BME280;31026;43.780;25.948;2022-12-19T04:53:09;103354.00;;;13.98;67.78
45285;BME280;31026;43.780;25.948;2022-12-19T04:55:37;103347.78;;;13.99;67.78
45285;BME280;31026;43.780;25.948;2022-12-19T04:58:06;103346.94;;;13.97;67.78
45285;BME280;31026;43.780;25.948;2022-12-19T05:00:34;103365.56;;;13.97;67.82
45285;BME280;31026;43.780;25.948;2022-12-19T05:03:03;103361.94;;;14.00;67.90
45285;BME280;31026;43.780;25.948;2022-12-19T05:05:31;103363.78;;;13.98;67.97
45285;BME280;31026;43.780;25.948;2022-12-19T05:08:04;103371.78;;;13.96;67.49
45285;BME280;31026;43.780;25.948;2022-12-19T05:10:33;103354.88;;;13.99;67.69
45285;BME280;31026;43.780;25.948;2022-12-19T05:13:04;103381.50;;;13.99;67.78
45285;BME280;31026;43.780;25.948;2022-12-19T05:15:33;103365.66;;;13.92;67.44
45285;BME280;31026;43.780;25.948;2022-12-19T05:18:03;103382.41;;;13.96;67.69
45285;BME280;31026;43.780;25.948;2022-12-19T05:20:31;103377.13;;;13.95;67.67
45285;BME280;31026;43.780;25.948;2022-12-19T05:23:00;103388.69;;;13.93;67.72
45285;BME280;31026;43.780;25.948;2022-12-19T05:25:31;103387.84;;;13.93;67.66
45285;BME280;31026;43.780;25.948;2022-12-19T05:28:00;103393.97;;;13.97;67.73
45285;BME280;31026;43.780;25.948;2022-12-19T05:30:29;103409.03;;;13.96;67.65
45285;BME280;31026;43.780;25.948;2022-12-19T05:32:59;103403.72;;;13.95;67.78
45285;BME280;31026;43.780;25.948;2022-12-19T05:35:28;103397.56;;;13.92;67.44
45285;BME280;31026;43.780;25.948;2022-12-19T05:37:57;103398.38;;;13.96;67.76
45285;BME280;31026;43.780;25.948;2022-12-19T05:40:26;103405.47;;;13.97;67.44
45285;BME280;31026;43.780;25.948;2022-12-19T05:42:57;103410.75;;;13.99;67.38
45285;BME280;31026;43.780;25.948;2022-12-19T05:45:25;103402.84;;;13.96;67.66
45285;BME280;31026;43.780;25.948;2022-12-19T05:47:53;103417.94;;;13.95;67.40
45285;BME280;31026;43.780;25.948;2022-12-19T05:50:22;103413.50;;;13.94;67.27
45285;BME280;31026;43.780;25.948;2022-12-19T05:52:50;103411.72;;;13.95;67.26
45285;BME280;31026;43.780;25.948;2022-12-19T05:55:18;103419.66;;;13.96;67.55
45285;BME280;31026;43.780;25.948;2022-12-19T05:57:47;103425.00;;;13.95;67.60
45285;BME280;31026;43.780;25.948;2022-12-19T06:00:18;103417.97;;;13.93;67.44
45285;BME280;31026;43.780;25.948;2022-12-19T06:02:46;103427.78;;;13.91;67.52
45285;BME280;31026;43.780;25.948;2022-12-19T06:05:15;103430.41;;;13.93;67.64
45285;BME280;31026;43.780;25.948;2022-12-19T06:07:43;103436.66;;;13.90;67.56
45285;BME280;31026;43.780;25.948;2022-12-19T06:10:12;103442.03;;;13.89;67.62
45285;BME280;31026;43.780;25.948;2022-12-19T06:12:41;103436.66;;;13.90;67.40
45285;BME280;31026;43.780;25.948;2022-12-19T06:15:10;103441.97;;;13.90;67.38
45285;BME280;31026;43.780;25.948;2022-12-19T06:17:40;103443.78;;;13.88;67.59
45285;BME280;31026;43.780;25.948;2022-12-19T06:20:09;103446.38;;;13.91;67.35
45285;BME280;31026;43.780;25.948;2022-12-19T06:22:37;103449.06;;;13.91;67.49
45285;BME280;31026;43.780;25.948;2022-12-19T06:25:06;103447.38;;;13.87;67.35
45285;BME280;31026;43.780;25.948;2022-12-19T06:27:36;103452.72;;;13.86;67.22
45285;BME280;31026;43.780;25.948;2022-12-19T06:30:05;103457.94;;;13.90;67.46
45285;BME280;31026;43.780;25.948;2022-12-19T06:32:33;103466.00;;;13.87;67.18
45285;BME280;31026;43.780;25.948;2022-12-19T06:37:36;103468.66;;;13.87;67.54
45285;BME280;31026;43.780;25.948;2022-12-19T06:40:05;103474.88;;;13.86;67.26
45285;BME280;31026;43.780;25.948;2022-12-19T06:42:55;103475.72;;;13.88;67.17
45285;BME280;31026;43.780;25.948;2022-12-19T06:45:21;103469.53;;;13.88;67.49
45285;BME280;31026;43.780;25.948;2022-12-19T06:47:50;103472.22;;;13.86;67.58
45285;BME280;31026;43.780;25.948;2022-12-19T06:50:19;103479.31;;;13.86;67.20
45285;BME280;31026;43.780;25.948;2022-12-19T06:52:50;103464.31;;;13.83;67.21
45285;BME280;31026;43.780;25.948;2022-12-19T06:55:20;103495.28;;;13.86;67.34
45285;BME280;31026;43.780;25.948;2022-12-19T06:57:48;103476.78;;;13.81;67.34
45285;BME280;31026;43.780;25.948;2022-12-19T07:00:18;103481.16;;;13.84;67.20
45285;BME280;31026;43.780;25.948;2022-12-19T07:02:48;103492.63;;;13.86;67.12
45285;BME280;31026;43.780;25.948;2022-12-19T07:05:18;103505.91;;;13.87;67.15
45285;BME280;31026;43.780;25.948;2022-12-19T07:07:46;103493.50;;;13.86;67.19
45285;BME280;31026;43.780;25.948;2022-12-19T07:10:17;103498.91;;;13.83;67.13
45285;BME280;31026;43.780;25.948;2022-12-19T07:12:46;103514.75;;;13.88;67.17
45285;BME280;31026;43.780;25.948;2022-12-19T07:15:16;103513.03;;;13.85;67.11
45285;BME280;31026;43.780;25.948;2022-12-19T07:17:44;103513.94;;;13.84;66.94
45285;BME280;31026;43.780;25.948;2022-12-19T07:20:14;103525.41;;;13.86;67.26
45285;BME280;31026;43.780;25.948;2022-12-19T07:22:43;103514.75;;;13.86;66.95
45285;BME280;31026;43.780;25.948;2022-12-19T07:25:11;103523.72;;;13.82;66.97
45285;BME280;31026;43.780;25.948;2022-12-19T07:27:44;103514.75;;;13.86;67.23
45285;BME280;31026;43.780;25.948;2022-12-19T07:30:13;103524.53;;;13.86;67.04
45285;BME280;31026;43.780;25.948;2022-12-19T07:32:44;103535.16;;;13.87;67.12
45285;BME280;31026;43.780;25.948;2022-12-19T07:35:18;103525.34;;;13.89;66.88
45285;BME280;31026;43.780;25.948;2022-12-19T07:37:47;103547.47;;;13.91;66.68
45285;BME280;31026;43.780;25.948;2022-12-19T07:40:16;103555.38;;;13.95;66.58
45285;BME280;31026;43.780;25.948;2022-12-19T07:42:47;103547.38;;;13.95;66.69
45285;BME280;31026;43.780;25.948;2022-12-19T07:45:16;103522.50;;;13.99;66.68
45285;BME280;31026;43.780;25.948;2022-12-19T07:47:44;103548.25;;;13.97;66.74
45285;BME280;31026;43.780;25.948;2022-12-19T07:50:13;103542.00;;;13.99;66.49
45285;BME280;31026;43.780;25.948;2022-12-19T07:52:42;103561.41;;;14.03;66.43
45285;BME280;31026;43.780;25.948;2022-12-19T07:55:10;103544.56;;;14.02;66.23
45285;BME280;31026;43.780;25.948;2022-12-19T07:57:40;103544.63;;;14.01;65.93
45285;BME280;31026;43.780;25.948;2022-12-19T08:00:12;103562.25;;;14.05;66.39
45285;BME280;31026;43.780;25.948;2022-12-19T08:02:40;103553.31;;;14.09;66.30
45285;BME280;31026;43.780;25.948;2022-12-19T08:05:08;103556.00;;;14.07;66.19
45285;BME280;31026;43.780;25.948;2022-12-19T08:07:37;103563.88;;;14.10;66.01
45285;BME280;31026;43.780;25.948;2022-12-19T08:10:05;103577.19;;;14.10;65.83
45285;BME280;31026;43.780;25.948;2022-12-19T08:12:35;103574.59;;;14.09;66.00
45285;BME280;31026;43.780;25.948;2022-12-19T08:15:04;103565.75;;;14.07;66.09
45285;BME280;31026;43.780;25.948;2022-12-19T08:17:35;103572.81;;;14.08;66.21
45285;BME280;31026;43.780;25.948;2022-12-19T08:20:05;103564.00;;;14.06;66.05
45285;BME280;31026;43.780;25.948;2022-12-19T08:22:33;103576.41;;;14.07;66.45
45285;BME280;31026;43.780;25.948;2022-12-19T08:25:02;103579.97;;;14.06;66.21
45285;BME280;31026;43.780;25.948;2022-12-19T08:27:30;103577.38;;;14.03;66.30
45285;BME280;31026;43.780;25.948;2022-12-19T08:30:00;103580.91;;;14.03;66.29
45285;BME280;31026;43.780;25.948;2022-12-19T08:32:28;103585.31;;;14.04;66.45
45285;BME280;31026;43.780;25.948;2022-12-19T08:37:32;103576.31;;;14.10;66.33
45285;BME280;31026;43.780;25.948;2022-12-19T08:40:00;103558.63;;;14.09;66.00
45285;BME280;31026;43.780;25.948;2022-12-19T08:42:28;103571.94;;;14.07;66.11
45285;BME280;31026;43.780;25.948;2022-12-19T08:44:58;103557.66;;;14.11;66.03
45285;BME280;31026;43.780;25.948;2022-12-19T08:47:27;103562.94;;;14.15;65.88
45285;BME280;31026;43.780;25.948;2022-12-19T08:49:56;103560.16;;;14.19;65.88
45285;BME280;31026;43.780;25.948;2022-12-19T08:52:35;103564.56;;;14.20;65.74
45285;BME280;31026;43.780;25.948;2022-12-19T08:55:03;103566.22;;;14.24;65.70
45285;BME280;31026;43.780;25.948;2022-12-19T08:57:32;103560.06;;;14.22;65.64
45285;BME280;31026;43.780;25.948;2022-12-19T09:00:00;103559.19;;;14.22;65.77
45285;BME280;31026;43.780;25.948;2022-12-19T09:02:29;103559.13;;;14.25;65.47
45285;BME280;31026;43.780;25.948;2022-12-19T09:04:57;103546.75;;;14.22;65.85
45285;BME280;31026;43.780;25.948;2022-12-19T09:07:26;103553.84;;;14.23;65.55
45285;BME280;31026;43.780;25.948;2022-12-19T09:09:57;103558.25;;;14.24;65.67
45285;BME280;31026;43.780;25.948;2022-12-19T09:12:25;103553.72;;;14.28;65.67
45285;BME280;31026;43.780;25.948;2022-12-19T09:14:56;103558.03;;;14.33;65.51
45285;BME280;31026;43.780;25.948;2022-12-19T09:17:24;103544.72;;;14.33;65.52
45285;BME280;31026;43.780;25.948;2022-12-19T09:19:52;103534.06;;;14.33;65.50
45285;BME280;31026;43.780;25.948;2022-12-19T09:22:21;103534.84;;;14.39;65.41
45285;BME280;31026;43.780;25.948;2022-12-19T09:24:49;103529.53;;;14.39;65.38
45285;BME280;31026;43.780;25.948;2022-12-19T09:27:20;103538.25;;;14.44;65.29
45285;BME280;31026;43.780;25.948;2022-12-19T09:29:48;103533.84;;;14.44;65.09
45285;BME280;31026;43.780;25.948;2022-12-19T09:32:18;103516.09;;;14.43;65.23
45285;BME280;31026;43.780;25.948;2022-12-19T09:34:46;103523.19;;;14.44;65.17
45285;BME280;31026;43.780;25.948;2022-12-19T09:37:16;103524.06;;;14.45;65.02
45285;BME280;31026;43.780;25.948;2022-12-19T09:39:45;103523.97;;;14.48;65.31
45285;BME280;31026;43.780;25.948;2022-12-19T09:42:23;103506.16;;;14.50;64.97
45285;BME280;31026;43.780;25.948;2022-12-19T09:45:11;103523.91;;;14.51;65.09
45285;BME280;31026;43.780;25.948;2022-12-19T09:47:43;103509.59;;;14.55;64.94
45285;BME280;31026;43.780;25.948;2022-12-19T09:50:19;103520.19;;;14.58;64.73
45285;BME280;31026;43.780;25.948;2022-12-19T09:52:53;103513.00;;;14.62;65.00
45285;BME280;31026;43.780;25.948;2022-12-19T09:55:24;103504.13;;;14.61;64.94
45285;BME280;31026;43.780;25.948;2022-12-19T09:57:58;103493.47;;;14.61;64.80
45285;BME280;31026;43.780;25.948;2022-12-19T10:00:31;103483.63;;;14.65;64.74
45285;BME280;31026;43.780;25.948;2022-12-19T10:03:02;103485.28;;;14.69;64.53
45285;BME280;31026;43.780;25.948;2022-12-19T10:05:32;103472.84;;;14.69;64.60
45285;BME280;31026;43.780;25.948;2022-12-19T10:08:07;103491.41;;;14.73;64.46
45285;BME280;31026;43.780;25.948;2022-12-19T10:10:44;103475.34;;;14.76;64.41
45285;BME280;31026;43.780;25.948;2022-12-19T10:13:19;103477.09;;;14.77;64.51
45285;BME280;31026;43.780;25.948;2022-12-19T10:15:53;103477.09;;;14.77;64.54
45285;BME280;31026;43.780;25.948;2022-12-19T10:18:25;103464.69;;;14.76;64.31
45285;BME280;31026;43.780;25.948;2022-12-19T10:21:01;103482.31;;;14.80;64.37
45285;BME280;31026;43.780;25.948;2022-12-19T10:23:44;103474.31;;;14.81;64.38
45285;BME280;31026;43.780;25.948;2022-12-19T10:26:18;103465.44;;;14.81;64.52
45285;BME280;31026;43.780;25.948;2022-12-19T10:28:58;103474.34;;;14.80;64.42
45285;BME280;31026;43.780;25.948;2022-12-19T10:31:31;103473.59;;;14.75;64.57
45285;BME280;31026;43.780;25.948;2022-12-19T10:34:01;103470.16;;;14.71;64.84
45285;BME280;31026;43.780;25.948;2022-12-19T10:36:36;103475.47;;;14.71;64.75
45285;BME280;31026;43.780;25.948;2022-12-19T10:39:07;103465.94;;;14.62;64.64
45285;BME280;31026;43.780;25.948;2022-12-19T10:41:46;103456.13;;;14.64;64.93
45285;BME280;31026;43.780;25.948;2022-12-19T10:44:20;103458.91;;;14.60;64.99
45285;BME280;31026;43.780;25.948;2022-12-19T10:46:50;103452.69;;;14.59;65.20
45285;BME280;31026;43.780;25.948;2022-12-19T10:49:19;103447.44;;;14.56;64.93
45285;BME280;31026;43.780;25.948;2022-12-19T10:51:52;103455.47;;;14.55;65.22
45285;BME280;31026;43.780;25.948;2022-12-19T10:54:24;103454.56;;;14.54;65.02
45285;BME280;31026;43.780;25.948;2022-12-19T10:56:52;103411.13;;;14.52;65.01
45285;BME280;31026;43.780;25.948;2022-12-19T10:59:23;103443.16;;;14.50;64.96
45285;BME280;31026;43.780;25.948;2022-12-19T11:01:53;103442.38;;;14.45;65.12
45285;BME280;31026;43.780;25.948;2022-12-19T11:04:26;103435.25;;;14.46;65.15
45285;BME280;31026;43.780;25.948;2022-12-19T11:07:15;103454.88;;;14.42;65.14
45285;BME280;31026;43.780;25.948;2022-12-19T11:09:45;103440.72;;;14.41;65.25
45285;BME280;31026;43.780;25.948;2022-12-19T11:12:16;103452.22;;;14.42;65.39
45285;BME280;31026;43.780;25.948;2022-12-19T11:14:51;103444.28;;;14.40;65.25
45285;BME280;31026;43.780;25.948;2022-12-19T11:17:23;103442.56;;;14.38;65.40
45285;BME280;31026;43.780;25.948;2022-12-19T11:19:53;103439.09;;;14.36;65.46
45285;BME280;31026;43.780;25.948;2022-12-19T11:22:23;103429.41;;;14.33;65.66
45285;BME280;31026;43.780;25.948;2022-12-19T11:24:53;103431.22;;;14.31;65.50
45285;BME280;31026;43.780;25.948;2022-12-19T11:27:35;103425.91;;;14.31;65.58
45285;BME280;31026;43.780;25.948;2022-12-19T11:30:16;103433.03;;;14.30;65.67
45285;BME280;31026;43.780;25.948;2022-12-19T11:32:47;103424.13;;;14.30;65.72
45285;BME280;31026;43.780;25.948;2022-12-19T11:35:17;103435.69;;;14.30;65.59
45285;BME280;31026;43.780;25.948;2022-12-19T11:37:47;103427.81;;;14.24;65.54
45285;BME280;31026;43.780;25.948;2022-12-19T11:40:19;103431.25;;;14.29;65.52
45285;BME280;31026;43.780;25.948;2022-12-19T11:42:50;103435.75;;;14.27;65.54
45285;BME280;31026;43.780;25.948;2022-12-19T11:45:26;103433.13;;;14.26;65.95
45285;BME280;31026;43.780;25.948;2022-12-19T11:47:59;103424.25;;;14.27;65.53
45285;BME280;31026;43.780;25.948;2022-12-19T11:50:30;103432.25;;;14.25;65.68
45285;BME280;31026;43.780;25.948;2022-12-19T11:53:01;103423.34;;;14.26;65.84
45285;BME280;31026;43.780;25.948;2022-12-19T11:55:35;103432.09;;;14.31;65.77
45285;BME280;31026;43.780;25.948;2022-12-19T11:58:07;103426.78;;;14.31;65.56
45285;BME280;31026;43.780;25.948;2022-12-19T12:00:39;103420.47;;;14.34;65.60
45285;BME280;31026;43.780;25.948;2022-12-19T12:05:57;103424.25;;;14.27;65.50
45285;BME280;31026;43.780;25.948;2022-12-19T12:08:37;103428.59;;;14.29;65.42
45285;BME280;31026;43.780;25.948;2022-12-19T12:11:24;103437.50;;;14.28;65.54
45285;BME280;31026;43.780;25.948;2022-12-19T12:14:06;103419.63;;;14.33;65.28
45285;BME280;31026;43.780;25.948;2022-12-19T12:16:46;103436.59;;;14.29;65.51
45285;BME280;31026;43.780;25.948;2022-12-19T12:19:22;103433.03;;;14.30;65.49
45285;BME280;31026;43.780;25.948;2022-12-19T12:21:57;103436.59;;;14.29;65.61
45285;BME280;31026;43.780;25.948;2022-12-19T12:24:32;103443.69;;;14.29;65.42
45285;BME280;31026;43.780;25.948;2022-12-19T12:27:04;103441.13;;;14.24;65.62
45285;BME280;31026;43.780;25.948;2022-12-19T12:29:37;103443.91;;;14.20;65.97
45285;BME280;31026;43.780;25.948;2022-12-19T12:32:18;103433.31;;;14.18;65.84
45285;BME280;31026;43.780;25.948;2022-12-19T12:34:52;103447.44;;;14.20;65.82
45285;BME280;31026;43.780;25.948;2022-12-19T12:37:35;103428.06;;;14.17;65.77
45285;BME280;31026;43.780;25.948;2022-12-19T12:40:13;103436.91;;;14.17;65.83
45285;BME280;31026;43.780;25.948;2022-12-19T12:42:46;103440.47;;;14.16;65.76
45285;BME280;31026;43.780;25.948;2022-12-19T12:45:21;103459.97;;;14.17;65.60
45285;BME280;31026;43.780;25.948;2022-12-19T12:47:53;103444.13;;;14.10;66.09
45285;BME280;31026;43.780;25.948;2022-12-19T12:50:23;103433.44;;;14.13;66.09
45285;BME280;31026;43.780;25.948;2022-12-19T12:52:52;103451.16;;;14.15;65.95
45285;BME280;31026;43.780;25.948;2022-12-19T12:55:24;103450.31;;;14.12;65.92
45285;BME280;31026;43.780;25.948;2022-12-19T12:57:53;103457.22;;;14.20;65.73
45285;BME280;31026;43.780;25.948;2022-12-19T13:00:23;103444.78;;;14.20;65.81
45285;BME280;31026;43.780;25.948;2022-12-19T13:02:56;103453.56;;;14.24;65.62
45285;BME280;31026;43.780;25.948;2022-12-19T13:05:31;103445.56;;;14.25;65.55
45285;BME280;31026;43.780;25.948;2022-12-19T13:10:51;103442.09;;;14.22;65.47
45285;BME280;31026;43.780;25.948;2022-12-19T13:19:12;103448.28;;;14.22;65.72
45285;BME280;31026;43.780;25.948;2022-12-19T13:24:24;103466.97;;;14.21;65.98